Franklin, Ohio
Current Conditions -  °F | °C
As of 8:53 AM on Thursday 29 Jan 2015 (Local Time) from KMGY Reporting Station
Overcast Overcast  
Wind Chill: 26°   Ceiling: 8000
Heat Index: 36°   Visibility: 10mi
Dew Point: 30°   Wind: 18mph
Humidity: 79%   Direction: 180°S
Pressure: 29.84"   Gusts: NA
Location:  39.54°N, 84.29°W
Report Text: KMGY 291353Z AUTO 18016KT 10SM OVC080 02/M01 A2984 RMK AO2 RAB11E34SNB34E35 SLP114 P0002 T00221011
Loading
Personal Weather Stations






























Interactive Weather Map New forecast layout! Learn more

10-Day Weather Forecast

Advertisements
Track Severe Weather on mobile